sensor_id;sensor_type;location;lat;lon;timestamp;temperature;humidity
44990;DHT22;30723;51.206;3.326;2023-11-22T00:02:17;6.40;99.90
44990;DHT22;30723;51.206;3.326;2023-11-22T00:04:43;6.30;99.90
44990;DHT22;30723;51.206;3.326;2023-11-22T00:07:09;6.30;99.90
44990;DHT22;30723;51.206;3.326;2023-11-22T00:09:35;6.30;99.90
44990;DHT22;30723;51.206;3.326;2023-11-22T00:12:01;6.20;99.90
44990;DHT22;30723;51.206;3.326;2023-11-22T00:14:26;6.20;99.90
44990;DHT22;30723;51.206;3.326;2023-11-22T00:16:52;6.20;99.90
44990;DHT22;30723;51.206;3.326;2023-11-22T00:19:19;6.20;99.90
44990;DHT22;30723;51.206;3.326;2023-11-22T00:21:48;6.10;99.90
44990;DHT22;30723;51.206;3.326;2023-11-22T00:24:14;6.00;99.90
44990;DHT22;30723;51.206;3.326;2023-11-22T00:26:39;5.90;99.90
44990;DHT22;30723;51.206;3.326;2023-11-22T00:29:05;5.90;99.90
44990;DHT22;30723;51.206;3.326;2023-11-22T00:31:31;5.90;99.90
44990;DHT22;30723;51.206;3.326;2023-11-22T00:33:57;5.90;99.90
44990;DHT22;30723;51.206;3.326;2023-11-22T00:36:23;6.00;99.90
44990;DHT22;30723;51.206;3.326;2023-11-22T00:38:48;6.00;99.90
44990;DHT22;30723;51.206;3.326;2023-11-22T00:41:14;6.00;99.90
44990;DHT22;30723;51.206;3.326;2023-11-22T00:43:41;6.10;99.90
44990;DHT22;30723;51.206;3.326;2023-11-22T00:46:07;6.10;99.90
44990;DHT22;30723;51.206;3.326;2023-11-22T00:48:32;6.10;99.90
44990;DHT22;30723;51.206;3.326;2023-11-22T00:50:58;6.10;99.90
44990;DHT22;30723;51.206;3.326;2023-11-22T00:53:24;6.10;99.90
44990;DHT22;30723;51.206;3.326;2023-11-22T00:55:50;6.00;99.90
44990;DHT22;30723;51.206;3.326;2023-11-22T00:58:16;6.00;99.90
44990;DHT22;30723;51.206;3.326;2023-11-22T01:00:42;6.00;99.90
44990;DHT22;30723;51.206;3.326;2023-11-22T01:03:08;6.00;99.90
44990;DHT22;30723;51.206;3.326;2023-11-22T01:05:37;6.00;99.90
44990;DHT22;30723;51.206;3.326;2023-11-22T01:08:03;6.00;99.90
44990;DHT22;30723;51.206;3.326;2023-11-22T01:10:29;6.00;99.90
44990;DHT22;30723;51.206;3.326;2023-11-22T01:12:55;5.90;99.90
44990;DHT22;30723;51.206;3.326;2023-11-22T01:15:21;5.90;99.90
44990;DHT22;30723;51.206;3.326;2023-11-22T01:17:47;6.00;99.90
44990;DHT22;30723;51.206;3.326;2023-11-22T01:20:12;6.00;99.90
44990;DHT22;30723;51.206;3.326;2023-11-22T01:22:39;6.00;99.90
44990;DHT22;30723;51.206;3.326;2023-11-22T01:25:05;6.00;99.90
44990;DHT22;30723;51.206;3.326;2023-11-22T01:27:31;6.00;99.90
44990;DHT22;30723;51.206;3.326;2023-11-22T01:29:57;6.00;99.90
44990;DHT22;30723;51.206;3.326;2023-11-22T01:32:23;6.00;99.90
44990;DHT22;30723;51.206;3.326;2023-11-22T01:34:49;5.90;99.90
44990;DHT22;30723;51.206;3.326;2023-11-22T01:37:15;6.00;99.90
44990;DHT22;30723;51.206;3.326;2023-11-22T01:39:41;6.00;99.90
44990;DHT22;30723;51.206;3.326;2023-11-22T01:42:07;6.10;99.90
44990;DHT22;30723;51.206;3.326;2023-11-22T01:44:33;6.10;99.90
44990;DHT22;30723;51.206;3.326;2023-11-22T01:46:59;6.10;99.90
44990;DHT22;30723;51.206;3.326;2023-11-22T01:49:25;6.10;99.90
44990;DHT22;30723;51.206;3.326;2023-11-22T01:51:51;6.10;99.90
44990;DHT22;30723;51.206;3.326;2023-11-22T01:54:18;6.10;99.90
44990;DHT22;30723;51.206;3.326;2023-11-22T01:56:44;6.10;99.90
44990;DHT22;30723;51.206;3.326;2023-11-22T01:59:11;6.10;99.90
44990;DHT22;30723;51.206;3.326;2023-11-22T02:01:38;6.10;99.90
44990;DHT22;30723;51.206;3.326;2023-11-22T02:04:04;6.10;99.90
44990;DHT22;30723;51.206;3.326;2023-11-22T02:06:30;6.10;99.90
44990;DHT22;30723;51.206;3.326;2023-11-22T02:08:57;6.10;99.90
44990;DHT22;30723;51.206;3.326;2023-11-22T02:11:22;6.20;99.90
44990;DHT22;30723;51.206;3.326;2023-11-22T02:13:50;6.20;99.90
44990;DHT22;30723;51.206;3.326;2023-11-22T02:16:17;6.20;99.90
44990;DHT22;30723;51.206;3.326;2023-11-22T02:18:49;6.20;99.90
44990;DHT22;30723;51.206;3.326;2023-11-22T02:21:18;6.20;99.90
44990;DHT22;30723;51.206;3.326;2023-11-22T02:23:43;6.20;99.90
44990;DHT22;30723;51.206;3.326;2023-11-22T02:26:09;6.20;99.90
44990;DHT22;30723;51.206;3.326;2023-11-22T02:28:35;6.30;99.90
44990;DHT22;30723;51.206;3.326;2023-11-22T02:31:01;6.20;99.90
44990;DHT22;30723;51.206;3.326;2023-11-22T02:33:26;6.20;99.90
44990;DHT22;30723;51.206;3.326;2023-11-22T02:35:52;6.20;99.90
44990;DHT22;30723;51.206;3.326;2023-11-22T02:38:18;6.20;99.90
44990;DHT22;30723;51.206;3.326;2023-11-22T02:40:44;6.20;99.90
44990;DHT22;30723;51.206;3.326;2023-11-22T02:43:09;6.20;99.90
44990;DHT22;30723;51.206;3.326;2023-11-22T02:45:36;6.10;99.90
44990;DHT22;30723;51.206;3.326;2023-11-22T02:48:02;6.10;99.90
44990;DHT22;30723;51.206;3.326;2023-11-22T02:50:29;6.10;99.90
44990;DHT22;30723;51.206;3.326;2023-11-22T02:52:58;6.00;99.90
44990;DHT22;30723;51.206;3.326;2023-11-22T02:55:24;6.00;99.90
44990;DHT22;30723;51.206;3.326;2023-11-22T02:57:50;6.00;99.90
44990;DHT22;30723;51.206;3.326;2023-11-22T03:00:16;6.00;99.90
44990;DHT22;30723;51.206;3.326;2023-11-22T03:02:45;6.00;99.90
44990;DHT22;30723;51.206;3.326;2023-11-22T03:05:13;6.10;99.90
44990;DHT22;30723;51.206;3.326;2023-11-22T03:07:40;6.10;99.90
44990;DHT22;30723;51.206;3.326;2023-11-22T03:10:07;6.20;99.90
44990;DHT22;30723;51.206;3.326;2023-11-22T03:12:33;6.20;99.90
44990;DHT22;30723;51.206;3.326;2023-11-22T03:14:59;6.10;99.90
44990;DHT22;30723;51.206;3.326;2023-11-22T03:17:28;6.10;99.90
44990;DHT22;30723;51.206;3.326;2023-11-22T03:19:57;6.10;99.90
44990;DHT22;30723;51.206;3.326;2023-11-22T03:22:24;6.10;99.90
44990;DHT22;30723;51.206;3.326;2023-11-22T03:24:50;6.10;99.90
44990;DHT22;30723;51.206;3.326;2023-11-22T03:27:16;6.10;99.90
44990;DHT22;30723;51.206;3.326;2023-11-22T03:29:43;6.00;99.90
44990;DHT22;30723;51.206;3.326;2023-11-22T03:32:09;6.00;99.90
44990;DHT22;30723;51.206;3.326;2023-11-22T03:34:34;6.00;99.90
44990;DHT22;30723;51.206;3.326;2023-11-22T03:37:00;6.00;99.90
44990;DHT22;30723;51.206;3.326;2023-11-22T03:39:26;6.00;99.90
44990;DHT22;30723;51.206;3.326;2023-11-22T03:41:52;6.00;99.90
44990;DHT22;30723;51.206;3.326;2023-11-22T03:44:18;6.10;99.90
44990;DHT22;30723;51.206;3.326;2023-11-22T03:46:44;6.10;99.90
44990;DHT22;30723;51.206;3.326;2023-11-22T03:49:10;6.10;99.90
44990;DHT22;30723;51.206;3.326;2023-11-22T03:51:37;6.00;99.90
44990;DHT22;30723;51.206;3.326;2023-11-22T03:54:03;5.90;99.90
44990;DHT22;30723;51.206;3.326;2023-11-22T03:56:29;5.90;99.90
44990;DHT22;30723;51.206;3.326;2023-11-22T03:58:55;5.90;99.90
44990;DHT22;30723;51.206;3.326;2023-11-22T04:01:21;6.00;99.90
44990;DHT22;30723;51.206;3.326;2023-11-22T04:03:47;6.00;99.90
44990;DHT22;30723;51.206;3.326;2023-11-22T04:06:17;6.10;99.90
44990;DHT22;30723;51.206;3.326;2023-11-22T04:08:45;6.10;99.90
44990;DHT22;30723;51.206;3.326;2023-11-22T04:11:12;6.20;99.90
44990;DHT22;30723;51.206;3.326;2023-11-22T04:13:38;6.20;99.90
44990;DHT22;30723;51.206;3.326;2023-11-22T04:16:07;6.30;99.90
44990;DHT22;30723;51.206;3.326;2023-11-22T04:18:38;6.30;99.90
44990;DHT22;30723;51.206;3.326;2023-11-22T04:21:04;6.40;99.90
44990;DHT22;30723;51.206;3.326;2023-11-22T04:23:33;6.40;99.90
44990;DHT22;30723;51.206;3.326;2023-11-22T04:25:59;6.40;99.90
44990;DHT22;30723;51.206;3.326;2023-11-22T04:28:26;6.40;99.90
44990;DHT22;30723;51.206;3.326;2023-11-22T04:30:52;6.40;99.90
44990;DHT22;30723;51.206;3.326;2023-11-22T04:33:19;6.50;99.90
44990;DHT22;30723;51.206;3.326;2023-11-22T04:35:46;6.60;99.90
44990;DHT22;30723;51.206;3.326;2023-11-22T04:38:11;6.70;99.90
44990;DHT22;30723;51.206;3.326;2023-11-22T04:40:37;6.60;99.90
44990;DHT22;30723;51.206;3.326;2023-11-22T04:43:03;6.60;99.90
44990;DHT22;30723;51.206;3.326;2023-11-22T04:45:29;6.60;99.90
44990;DHT22;30723;51.206;3.326;2023-11-22T04:47:54;6.60;99.90
44990;DHT22;30723;51.206;3.326;2023-11-22T04:50:22;6.60;99.90
44990;DHT22;30723;51.206;3.326;2023-11-22T04:52:50;6.60;99.90
44990;DHT22;30723;51.206;3.326;2023-11-22T04:55:16;6.70;99.90
44990;DHT22;30723;51.206;3.326;2023-11-22T04:57:42;6.70;99.90
44990;DHT22;30723;51.206;3.326;2023-11-22T05:00:08;6.70;99.90
44990;DHT22;30723;51.206;3.326;2023-11-22T05:02:34;6.70;99.90
44990;DHT22;30723;51.206;3.326;2023-11-22T05:05:00;6.60;99.90
44990;DHT22;30723;51.206;3.326;2023-11-22T05:07:26;6.60;99.90
44990;DHT22;30723;51.206;3.326;2023-11-22T05:09:52;6.50;99.90
44990;DHT22;30723;51.206;3.326;2023-11-22T05:12:18;6.40;99.90
44990;DHT22;30723;51.206;3.326;2023-11-22T05:14:43;6.40;99.90
44990;DHT22;30723;51.206;3.326;2023-11-22T05:17:11;6.30;99.90
44990;DHT22;30723;51.206;3.326;2023-11-22T05:19:38;6.20;99.90
44990;DHT22;30723;51.206;3.326;2023-11-22T05:22:04;6.10;99.90
44990;DHT22;30723;51.206;3.326;2023-11-22T05:24:30;6.10;99.90
44990;DHT22;30723;51.206;3.326;2023-11-22T05:26:56;6.00;99.90
44990;DHT22;30723;51.206;3.326;2023-11-22T05:29:21;6.00;99.90
44990;DHT22;30723;51.206;3.326;2023-11-22T05:31:47;5.90;99.90
44990;DHT22;30723;51.206;3.326;2023-11-22T05:34:13;5.90;99.90
44990;DHT22;30723;51.206;3.326;2023-11-22T05:36:39;5.90;99.90
44990;DHT22;30723;51.206;3.326;2023-11-22T05:39:05;5.80;99.90
44990;DHT22;30723;51.206;3.326;2023-11-22T05:41:32;5.80;99.90
44990;DHT22;30723;51.206;3.326;2023-11-22T05:43:58;5.80;99.90
44990;DHT22;30723;51.206;3.326;2023-11-22T05:46:24;5.70;99.90
44990;DHT22;30723;51.206;3.326;2023-11-22T05:48:53;5.60;99.90
44990;DHT22;30723;51.206;3.326;2023-11-22T05:51:19;5.50;99.90
44990;DHT22;30723;51.206;3.326;2023-11-22T05:53:45;5.50;99.90
44990;DHT22;30723;51.206;3.326;2023-11-22T05:56:11;5.50;99.90
44990;DHT22;30723;51.206;3.326;2023-11-22T05:58:38;5.50;99.90
44990;DHT22;30723;51.206;3.326;2023-11-22T06:01:07;5.50;99.90
44990;DHT22;30723;51.206;3.326;2023-11-22T06:03:34;5.40;99.90
44990;DHT22;30723;51.206;3.326;2023-11-22T06:06:00;5.40;99.90
44990;DHT22;30723;51.206;3.326;2023-11-22T06:08:26;5.40;99.90
44990;DHT22;30723;51.206;3.326;2023-11-22T06:10:52;5.40;99.90
44990;DHT22;30723;51.206;3.326;2023-11-22T06:13:19;5.40;99.90
44990;DHT22;30723;51.206;3.326;2023-11-22T06:15:46;5.40;99.90
44990;DHT22;30723;51.206;3.326;2023-11-22T06:18:11;5.50;99.90
44990;DHT22;30723;51.206;3.326;2023-11-22T06:20:39;5.50;99.90
44990;DHT22;30723;51.206;3.326;2023-11-22T06:23:05;5.50;99.90
44990;DHT22;30723;51.206;3.326;2023-11-22T06:25:32;5.60;99.90
44990;DHT22;30723;51.206;3.326;2023-11-22T06:27:57;5.60;99.90
44990;DHT22;30723;51.206;3.326;2023-11-22T06:30:23;5.60;99.90
44990;DHT22;30723;51.206;3.326;2023-11-22T06:32:53;5.60;99.90
44990;DHT22;30723;51.206;3.326;2023-11-22T06:35:19;5.60;99.90
44990;DHT22;30723;51.206;3.326;2023-11-22T06:37:45;5.60;99.90
44990;DHT22;30723;51.206;3.326;2023-11-22T06:40:11;5.70;99.90
44990;DHT22;30723;51.206;3.326;2023-11-22T06:42:41;5.70;99.90
44990;DHT22;30723;51.206;3.326;2023-11-22T06:45:07;5.60;99.90
44990;DHT22;30723;51.206;3.326;2023-11-22T06:47:38;5.60;99.90
44990;DHT22;30723;51.206;3.326;2023-11-22T06:50:04;5.60;99.90
44990;DHT22;30723;51.206;3.326;2023-11-22T06:52:41;5.50;99.90
44990;DHT22;30723;51.206;3.326;2023-11-22T06:55:09;5.50;99.90
44990;DHT22;30723;51.206;3.326;2023-11-22T06:57:37;5.50;99.90
44990;DHT22;30723;51.206;3.326;2023-11-22T07:00:04;5.60;99.90
44990;DHT22;30723;51.206;3.326;2023-11-22T07:02:36;5.50;99.90
44990;DHT22;30723;51.206;3.326;2023-11-22T07:05:03;5.50;99.90
44990;DHT22;30723;51.206;3.326;2023-11-22T07:07:29;5.50;99.90
44990;DHT22;30723;51.206;3.326;2023-11-22T07:09:55;5.50;99.90
44990;DHT22;30723;51.206;3.326;2023-11-22T07:12:25;5.50;99.90
44990;DHT22;30723;51.206;3.326;2023-11-22T07:14:52;5.50;99.90
44990;DHT22;30723;51.206;3.326;2023-11-22T07:17:18;5.50;99.90
44990;DHT22;30723;51.206;3.326;2023-11-22T07:19:44;5.50;99.90
44990;DHT22;30723;51.206;3.326;2023-11-22T07:22:16;5.50;99.90
44990;DHT22;30723;51.206;3.326;2023-11-22T07:24:46;5.40;99.90
44990;DHT22;30723;51.206;3.326;2023-11-22T07:27:15;5.40;99.90
44990;DHT22;30723;51.206;3.326;2023-11-22T07:29:42;5.40;99.90
44990;DHT22;30723;51.206;3.326;2023-11-22T07:32:09;5.30;99.90
44990;DHT22;30723;51.206;3.326;2023-11-22T07:34:36;5.30;99.90
44990;DHT22;30723;51.206;3.326;2023-11-22T07:37:02;5.30;99.90
44990;DHT22;30723;51.206;3.326;2023-11-22T07:39:28;5.30;99.90
44990;DHT22;30723;51.206;3.326;2023-11-22T07:41:55;5.30;99.90
44990;DHT22;30723;51.206;3.326;2023-11-22T07:44:24;5.30;99.90
44990;DHT22;30723;51.206;3.326;2023-11-22T07:46:50;5.40;99.90
44990;DHT22;30723;51.206;3.326;2023-11-22T07:49:18;5.30;99.90
44990;DHT22;30723;51.206;3.326;2023-11-22T07:51:45;5.40;99.90
44990;DHT22;30723;51.206;3.326;2023-11-22T07:54:11;5.40;99.90
44990;DHT22;30723;51.206;3.326;2023-11-22T07:56:41;5.40;99.90
44990;DHT22;30723;51.206;3.326;2023-11-22T07:59:09;5.50;99.90
44990;DHT22;30723;51.206;3.326;2023-11-22T08:01:36;5.60;99.90
44990;DHT22;30723;51.206;3.326;2023-11-22T08:04:03;5.60;99.90
44990;DHT22;30723;51.206;3.326;2023-11-22T08:06:31;5.70;99.90
44990;DHT22;30723;51.206;3.326;2023-11-22T08:08:58;5.70;99.90
44990;DHT22;30723;51.206;3.326;2023-11-22T08:11:27;5.70;99.90
44990;DHT22;30723;51.206;3.326;2023-11-22T08:13:54;5.80;99.90
44990;DHT22;30723;51.206;3.326;2023-11-22T08:16:27;5.80;99.90
44990;DHT22;30723;51.206;3.326;2023-11-22T08:18:53;5.90;99.90
44990;DHT22;30723;51.206;3.326;2023-11-22T08:21:19;5.90;99.90
44990;DHT22;30723;51.206;3.326;2023-11-22T08:23:48;6.00;99.90
44990;DHT22;30723;51.206;3.326;2023-11-22T08:26:14;6.20;99.90
44990;DHT22;30723;51.206;3.326;2023-11-22T08:28:40;6.30;99.90
44990;DHT22;30723;51.206;3.326;2023-11-22T08:31:06;6.40;99.90
44990;DHT22;30723;51.206;3.326;2023-11-22T08:33:38;6.40;99.90
44990;DHT22;30723;51.206;3.326;2023-11-22T08:36:06;6.50;99.90
44990;DHT22;30723;51.206;3.326;2023-11-22T08:38:32;6.60;99.90
44990;DHT22;30723;51.206;3.326;2023-11-22T08:41:04;6.60;99.90
44990;DHT22;30723;51.206;3.326;2023-11-22T08:43:33;6.70;99.90
44990;DHT22;30723;51.206;3.326;2023-11-22T08:46:00;6.80;99.90
44990;DHT22;30723;51.206;3.326;2023-11-22T08:48:26;6.90;99.90
44990;DHT22;30723;51.206;3.326;2023-11-22T08:50:53;7.00;99.90
44990;DHT22;30723;51.206;3.326;2023-11-22T08:53:21;7.10;99.90
44990;DHT22;30723;51.206;3.326;2023-11-22T08:55:49;7.20;99.90
44990;DHT22;30723;51.206;3.326;2023-11-22T08:59:20;7.30;99.90
44990;DHT22;30723;51.206;3.326;2023-11-22T09:01:46;7.40;99.90
44990;DHT22;30723;51.206;3.326;2023-11-22T09:04:11;7.50;99.90
44990;DHT22;30723;51.206;3.326;2023-11-22T09:06:37;7.50;99.90
44990;DHT22;30723;51.206;3.326;2023-11-22T09:09:03;7.60;99.90
44990;DHT22;30723;51.206;3.326;2023-11-22T09:11:29;7.60;99.90
44990;DHT22;30723;51.206;3.326;2023-11-22T09:13:54;7.70;99.90
44990;DHT22;30723;51.206;3.326;2023-11-22T09:16:22;7.80;99.90
44990;DHT22;30723;51.206;3.326;2023-11-22T09:18:50;7.90;99.90
44990;DHT22;30723;51.206;3.326;2023-11-22T09:21:17;8.10;99.90
44990;DHT22;30723;51.206;3.326;2023-11-22T09:23:43;8.10;99.90
44990;DHT22;30723;51.206;3.326;2023-11-22T09:26:09;8.20;99.90
44990;DHT22;30723;51.206;3.326;2023-11-22T09:28:35;8.20;99.90
44990;DHT22;30723;51.206;3.326;2023-11-22T09:31:01;8.30;99.90
44990;DHT22;30723;51.206;3.326;2023-11-22T09:33:31;8.40;99.90
44990;DHT22;30723;51.206;3.326;2023-11-22T09:35:58;8.50;99.90
44990;DHT22;30723;51.206;3.326;2023-11-22T09:38:24;8.70;99.90
44990;DHT22;30723;51.206;3.326;2023-11-22T09:40:50;8.80;99.90
44990;DHT22;30723;51.206;3.326;2023-11-22T09:43:18;8.80;99.90
44990;DHT22;30723;51.206;3.326;2023-11-22T09:45:47;8.90;99.90
44990;DHT22;30723;51.206;3.326;2023-11-22T09:48:19;9.00;99.90
44990;DHT22;30723;51.206;3.326;2023-11-22T09:56:20;8.90;99.90
44990;DHT22;30723;51.206;3.326;2023-11-22T09:58:47;8.90;99.90
44990;DHT22;30723;51.206;3.326;2023-11-22T10:01:14;8.90;99.90
44990;DHT22;30723;51.206;3.326;2023-11-22T10:03:41;8.90;99.90
44990;DHT22;30723;51.206;3.326;2023-11-22T10:06:07;8.90;99.90
44990;DHT22;30723;51.206;3.326;2023-11-22T10:08:33;8.90;99.90
44990;DHT22;30723;51.206;3.326;2023-11-22T10:11:01;9.10;99.90
44990;DHT22;30723;51.206;3.326;2023-11-22T10:13:27;9.20;99.90
44990;DHT22;30723;51.206;3.326;2023-11-22T10:15:53;9.30;99.90
44990;DHT22;30723;51.206;3.326;2023-11-22T10:18:20;9.70;99.90
44990;DHT22;30723;51.206;3.326;2023-11-22T10:20:48;9.90;99.90
44990;DHT22;30723;51.206;3.326;2023-11-22T10:23:19;10.60;99.90
44990;DHT22;30723;51.206;3.326;2023-11-22T10:25:52;11.00;99.90
44990;DHT22;30723;51.206;3.326;2023-11-22T10:28:19;10.90;99.90
44990;DHT22;30723;51.206;3.326;2023-11-22T10:30:49;10.90;99.90
44990;DHT22;30723;51.206;3.326;2023-11-22T10:33:17;11.40;99.90
44990;DHT22;30723;51.206;3.326;2023-11-22T10:35:49;11.80;99.90
44990;DHT22;30723;51.206;3.326;2023-11-22T10:38:17;12.10;99.90
44990;DHT22;30723;51.206;3.326;2023-11-22T10:40:43;12.60;99.90
44990;DHT22;30723;51.206;3.326;2023-11-22T10:43:14;13.30;99.90
44990;DHT22;30723;51.206;3.326;2023-11-22T10:45:42;14.10;99.90
44990;DHT22;30723;51.206;3.326;2023-11-22T10:48:16;14.70;99.90
44990;DHT22;30723;51.206;3.326;2023-11-22T10:50:43;15.40;99.90
44990;DHT22;30723;51.206;3.326;2023-11-22T10:53:12;15.50;99.90
44990;DHT22;30723;51.206;3.326;2023-11-22T10:55:48;15.30;99.90
44990;DHT22;30723;51.206;3.326;2023-11-22T10:58:18;15.20;99.90
44990;DHT22;30723;51.206;3.326;2023-11-22T11:00:46;15.20;99.90
44990;DHT22;30723;51.206;3.326;2023-11-22T11:03:14;15.10;99.90
44990;DHT22;30723;51.206;3.326;2023-11-22T11:05:47;15.20;99.90
44990;DHT22;30723;51.206;3.326;2023-11-22T11:08:17;15.30;99.90
44990;DHT22;30723;51.206;3.326;2023-11-22T11:10:46;15.20;99.90
44990;DHT22;30723;51.206;3.326;2023-11-22T11:13:12;14.70;99.90
44990;DHT22;30723;51.206;3.326;2023-11-22T11:15:40;14.10;99.90
44990;DHT22;30723;51.206;3.326;2023-11-22T11:18:14;13.50;99.90
44990;DHT22;30723;51.206;3.326;2023-11-22T11:20:51;13.10;99.90
44990;DHT22;30723;51.206;3.326;2023-11-22T11:23:19;12.80;99.90
44990;DHT22;30723;51.206;3.326;2023-11-22T11:25:49;12.60;99.90
44990;DHT22;30723;51.206;3.326;2023-11-22T11:28:15;12.30;99.90
44990;DHT22;30723;51.206;3.326;2023-11-22T11:30:46;12.30;99.90
44990;DHT22;30723;51.206;3.326;2023-11-22T11:33:15;12.50;99.90
44990;DHT22;30723;51.206;3.326;2023-11-22T11:35:48;12.80;99.90
44990;DHT22;30723;51.206;3.326;2023-11-22T11:38:17;13.40;99.90
44990;DHT22;30723;51.206;3.326;2023-11-22T11:40:48;14.10;99.90
44990;DHT22;30723;51.206;3.326;2023-11-22T11:43:14;14.80;99.90
44990;DHT22;30723;51.206;3.326;2023-11-22T11:45:42;15.40;99.90
44990;DHT22;30723;51.206;3.326;2023-11-22T11:48:13;16.20;99.90
44990;DHT22;30723;51.206;3.326;2023-11-22T11:50:40;16.70;99.90
44990;DHT22;30723;51.206;3.326;2023-11-22T11:53:07;16.90;99.90
44990;DHT22;30723;51.206;3.326;2023-11-22T11:55:32;17.50;99.90
44990;DHT22;30723;51.206;3.326;2023-11-22T11:58:05;18.00;99.90
44990;DHT22;30723;51.206;3.326;2023-11-22T12:00:36;17.80;99.90
44990;DHT22;30723;51.206;3.326;2023-11-22T12:03:09;17.60;99.90
44990;DHT22;30723;51.206;3.326;2023-11-22T12:05:38;16.80;99.90
44990;DHT22;30723;51.206;3.326;2023-11-22T12:08:04;16.10;99.90
44990;DHT22;30723;51.206;3.326;2023-11-22T12:10:31;15.00;99.90
44990;DHT22;30723;51.206;3.326;2023-11-22T12:12:57;14.20;99.90
44990;DHT22;30723;51.206;3.326;2023-11-22T12:15:25;14.10;99.90
44990;DHT22;30723;51.206;3.326;2023-11-22T12:17:51;14.40;99.90
44990;DHT22;30723;51.206;3.326;2023-11-22T12:20:17;14.80;99.90
44990;DHT22;30723;51.206;3.326;2023-11-22T12:22:47;14.80;99.90
44990;DHT22;30723;51.206;3.326;2023-11-22T12:25:14;14.80;99.90
44990;DHT22;30723;51.206;3.326;2023-11-22T12:27:42;14.40;99.90
44990;DHT22;30723;51.206;3.326;2023-11-22T12:30:09;14.00;99.90
44990;DHT22;30723;51.206;3.326;2023-11-22T12:32:39;13.50;99.90
44990;DHT22;30723;51.206;3.326;2023-11-22T12:35:06;13.10;99.90
44990;DHT22;30723;51.206;3.326;2023-11-22T12:37:34;12.60;99.90
44990;DHT22;30723;51.206;3.326;2023-11-22T12:40:09;12.40;99.90
44990;DHT22;30723;51.206;3.326;2023-11-22T12:42:52;12.10;99.90
44990;DHT22;30723;51.206;3.326;2023-11-22T12:45:20;11.90;99.90
44990;DHT22;30723;51.206;3.326;2023-11-22T12:47:46;11.90;99.90
44990;DHT22;30723;51.206;3.326;2023-11-22T12:50:35;12.00;99.90
44990;DHT22;30723;51.206;3.326;2023-11-22T12:53:14;12.00;99.90
44990;DHT22;30723;51.206;3.326;2023-11-22T12:55:45;11.90;99.90
44990;DHT22;30723;51.206;3.326;2023-11-22T12:58:12;11.60;99.90
44990;DHT22;30723;51.206;3.326;2023-11-22T13:00:42;11.60;99.90
44990;DHT22;30723;51.206;3.326;2023-11-22T13:03:09;11.40;99.90
44990;DHT22;30723;51.206;3.326;2023-11-22T13:05:39;11.40;99.90
44990;DHT22;30723;51.206;3.326;2023-11-22T13:08:08;11.30;99.90
44990;DHT22;30723;51.206;3.326;2023-11-22T13:10:36;11.20;99.90
44990;DHT22;30723;51.206;3.326;2023-11-22T13:13:02;11.00;99.90
44990;DHT22;30723;51.206;3.326;2023-11-22T13:15:28;10.90;99.90
44990;DHT22;30723;51.206;3.326;2023-11-22T13:17:56;10.70;99.90
44990;DHT22;30723;51.206;3.326;2023-11-22T13:20:22;10.60;99.90
44990;DHT22;30723;51.206;3.326;2023-11-22T13:22:48;10.70;99.90
44990;DHT22;30723;51.206;3.326;2023-11-22T13:25:14;10.70;99.90
44990;DHT22;30723;51.206;3.326;2023-11-22T13:27:42;10.70;99.90
44990;DHT22;30723;51.206;3.326;2023-11-22T13:30:08;10.60;99.90
44990;DHT22;30723;51.206;3.326;2023-11-22T13:32:33;10.50;99.90
44990;DHT22;30723;51.206;3.326;2023-11-22T13:35:00;10.50;99.90
44990;DHT22;30723;51.206;3.326;2023-11-22T13:37:26;10.50;99.90
44990;DHT22;30723;51.206;3.326;2023-11-22T13:39:55;10.50;99.90
44990;DHT22;30723;51.206;3.326;2023-11-22T13:42:21;10.70;99.90
44990;DHT22;30723;51.206;3.326;2023-11-22T13:44:46;10.70;99.90
44990;DHT22;30723;51.206;3.326;2023-11-22T13:47:13;10.70;99.90
44990;DHT22;30723;51.206;3.326;2023-11-22T13:49:41;10.80;99.90
44990;DHT22;30723;51.206;3.326;2023-11-22T13:52:08;10.70;99.90
44990;DHT22;30723;51.206;3.326;2023-11-22T13:54:35;10.60;99.90
44990;DHT22;30723;51.206;3.326;2023-11-22T13:57:04;10.60;99.90
44990;DHT22;30723;51.206;3.326;2023-11-22T13:59:30;10.50;99.90
44990;DHT22;30723;51.206;3.326;2023-11-22T14:01:56;10.60;99.90
44990;DHT22;30723;51.206;3.326;2023-11-22T14:04:21;10.70;99.90
44990;DHT22;30723;51.206;3.326;2023-11-22T14:06:48;10.70;99.90
44990;DHT22;30723;51.206;3.326;2023-11-22T14:09:14;10.60;99.90
44990;DHT22;30723;51.206;3.326;2023-11-22T14:11:40;10.70;99.90
44990;DHT22;30723;51.206;3.326;2023-11-22T14:14:06;10.70;99.90
44990;DHT22;30723;51.206;3.326;2023-11-22T14:16:36;10.70;99.90
44990;DHT22;30723;51.206;3.326;2023-11-22T14:19:04;10.60;99.90
44990;DHT22;30723;51.206;3.326;2023-11-22T14:21:31;10.60;99.90
44990;DHT22;30723;51.206;3.326;2023-11-22T14:23:58;10.50;99.90
44990;DHT22;30723;51.206;3.326;2023-11-22T14:26:24;10.50;99.90
44990;DHT22;30723;51.206;3.326;2023-11-22T14:28:50;10.30;99.90
44990;DHT22;30723;51.206;3.326;2023-11-22T14:31:18;10.30;99.90
44990;DHT22;30723;51.206;3.326;2023-11-22T14:33:43;10.30;99.90
44990;DHT22;30723;51.206;3.326;2023-11-22T14:36:09;10.30;99.90
44990;DHT22;30723;51.206;3.326;2023-11-22T14:38:35;10.30;99.90
44990;DHT22;30723;51.206;3.326;2023-11-22T14:41:01;10.30;99.90
44990;DHT22;30723;51.206;3.326;2023-11-22T14:43:29;10.30;99.90
44990;DHT22;30723;51.206;3.326;2023-11-22T14:45:54;10.20;99.90
44990;DHT22;30723;51.206;3.326;2023-11-22T14:48:21;10.20;99.90
44990;DHT22;30723;51.206;3.326;2023-11-22T14:50:47;10.20;99.90
44990;DHT22;30723;51.206;3.326;2023-11-22T14:53:12;10.20;99.90
44990;DHT22;30723;51.206;3.326;2023-11-22T14:55:38;10.10;99.90
44990;DHT22;30723;51.206;3.326;2023-11-22T14:58:06;10.00;99.90
44990;DHT22;30723;51.206;3.326;2023-11-22T15:00:32;10.10;99.90
44990;DHT22;30723;51.206;3.326;2023-11-22T15:02:58;10.10;99.90
44990;DHT22;30723;51.206;3.326;2023-11-22T15:05:24;10.00;99.90
44990;DHT22;30723;51.206;3.326;2023-11-22T15:07:52;10.00;99.90
44990;DHT22;30723;51.206;3.326;2023-11-22T15:10:21;10.00;99.90
44990;DHT22;30723;51.206;3.326;2023-11-22T15:12:47;10.00;99.90
44990;DHT22;30723;51.206;3.326;2023-11-22T15:15:14;10.10;99.90
44990;DHT22;30723;51.206;3.326;2023-11-22T15:17:40;10.10;99.90
44990;DHT22;30723;51.206;3.326;2023-11-22T15:20:06;10.10;99.90
44990;DHT22;30723;51.206;3.326;2023-11-22T15:22:36;10.10;99.90
44990;DHT22;30723;51.206;3.326;2023-11-22T15:25:02;10.10;99.90
44990;DHT22;30723;51.206;3.326;2023-11-22T15:27:30;10.20;99.90
44990;DHT22;30723;51.206;3.326;2023-11-22T15:29:56;10.10;99.90
44990;DHT22;30723;51.206;3.326;2023-11-22T15:32:22;10.00;99.90
44990;DHT22;30723;51.206;3.326;2023-11-22T15:34:48;10.00;99.90
44990;DHT22;30723;51.206;3.326;2023-11-22T15:37:14;10.00;99.90
44990;DHT22;30723;51.206;3.326;2023-11-22T15:39:42;10.00;99.90
44990;DHT22;30723;51.206;3.326;2023-11-22T15:42:07;10.00;99.90
44990;DHT22;30723;51.206;3.326;2023-11-22T15:44:33;9.90;99.90
44990;DHT22;30723;51.206;3.326;2023-11-22T15:46:59;9.90;99.90